Time;durP1;ratioP1;P1;durP2;ratioP2;P2;SDS_P1;SDS_P2;PMS_P1;PMS_P2;Temp;Humidity;BMP_temperature;BMP_pressure;BME280_temperature;BME280_humidity;BME280_pressure;Samples;Min_cycle;Max_cycle;Signal;HPM_P1;HPM_P2
2022/06/18 00:00:22;;;;;;;;;13.50;13.50;;;;;;;;5092109;27;45306;-70
2022/06/18 00:02:47;;;;;;;;;13.50;12.00;;;;;;;;5091400;27;45419;-71
2022/06/18 00:05:14;;;;;;;;;13.50;13.50;;;;;;;;5091793;27;45383;-71
2022/06/18 00:07:42;;;;;;;;;11.75;11.75;;;;;;;;5098320;27;47365;-70
2022/06/18 00:10:11;;;;;;;;;15.25;14.00;;;;;;;;5101673;27;45412;-71
2022/06/18 00:15:21;;;;;;;;;15.50;14.00;;;;;;;;5089666;27;45433;-70
2022/06/18 00:17:47;;;;;;;;;14.00;12.50;;;;;;;;5091003;27;46337;-70
2022/06/18 00:20:13;;;;;;;;;14.25;13.75;;;;;;;;5092796;27;45414;-71
2022/06/18 00:22:39;;;;;;;;;14.75;13.00;;;;;;;;5091507;27;45417;-70
2022/06/18 00:25:22;;;;;;;;;12.00;12.00;;;;;;;;5093330;27;45358;-71
2022/06/18 00:27:47;;;;;;;;;13.50;13.25;;;;;;;;5091319;27;46202;-71
2022/06/18 00:30:15;;;;;;;;;13.50;12.25;;;;;;;;5093326;27;45345;-71
2022/06/18 00:32:40;;;;;;;;;12.50;11.25;;;;;;;;5094727;27;45307;-70
2022/06/18 00:35:05;;;;;;;;;14.75;14.00;;;;;;;;5092495;27;48806;-71
2022/06/18 00:37:30;;;;;;;;;10.75;10.00;;;;;;;;5093991;27;46055;-70
2022/06/18 00:39:56;;;;;;;;;13.25;12.25;;;;;;;;5093004;27;45370;-70
2022/06/18 00:42:26;;;;;;;;;11.00;11.00;;;;;;;;5093396;27;45535;-71
2022/06/18 00:44:54;;;;;;;;;12.00;12.00;;;;;;;;5090796;27;45458;-71
2022/06/18 00:47:19;;;;;;;;;11.75;11.75;;;;;;;;5092055;27;47255;-70
2022/06/18 00:49:51;;;;;;;;;11.40;11.40;;;;;;;;5092465;27;45543;-70
2022/06/18 00:52:22;;;;;;;;;14.00;13.50;;;;;;;;5091453;27;45545;-71
2022/06/18 00:54:50;;;;;;;;;18.75;13.50;;;;;;;;5091864;27;45480;-71
2022/06/18 00:57:18;;;;;;;;;15.25;13.75;;;;;;;;5092089;27;46371;-70
2022/06/18 00:59:46;;;;;;;;;13.00;11.00;;;;;;;;5094668;27;45520;-70
2022/06/18 01:02:16;;;;;;;;;12.00;12.00;;;;;;;;5093487;27;45527;-70
2022/06/18 01:04:42;;;;;;;;;14.00;12.25;;;;;;;;5094280;27;45497;-70
2022/06/18 01:07:26;;;;;;;;;13.00;11.50;;;;;;;;5095606;27;47111;-71
2022/06/18 01:09:51;;;;;;;;;12.00;12.00;;;;;;;;5096091;27;45475;-71
2022/06/18 01:12:17;;;;;;;;;14.50;12.00;;;;;;;;5110236;27;45254;-71
2022/06/18 01:14:43;;;;;;;;;15.25;13.75;;;;;;;;5106591;27;45664;-70
2022/06/18 01:17:09;;;;;;;;;12.25;10.75;;;;;;;;5095707;27;45365;-70
2022/06/18 01:19:39;;;;;;;;;12.00;12.00;;;;;;;;5095158;27;45458;-70
2022/06/18 01:22:04;;;;;;;;;12.75;12.25;;;;;;;;5096667;27;45447;-71
2022/06/18 01:24:36;;;;;;;;;10.50;10.50;;;;;;;;5096702;27;45421;-71
2022/06/18 01:27:02;;;;;;;;;12.75;12.75;;;;;;;;5096770;27;46326;-71
2022/06/18 01:29:27;;;;;;;;;14.75;14.00;;;;;;;;5095661;27;45432;-70
2022/06/18 01:31:52;;;;;;;;;12.50;12.00;;;;;;;;5095901;27;45488;-70
2022/06/18 01:34:20;;;;;;;;;12.25;12.25;;;;;;;;5095602;27;45312;-71
2022/06/18 01:36:45;;;;;;;;;14.00;13.00;;;;;;;;5094265;27;46862;-71
2022/06/18 01:39:13;;;;;;;;;11.25;11.25;;;;;;;;5095484;27;45385;-71
2022/06/18 01:41:50;;;;;;;;;11.50;9.75;;;;;;;;5097702;27;45558;-71
2022/06/18 01:44:19;;;;;;;;;14.00;14.00;;;;;;;;5094243;27;45507;-70
2022/06/18 01:46:46;;;;;;;;;12.00;11.25;;;;;;;;5095372;27;46901;-71
2022/06/18 01:49:16;;;;;;;;;13.25;11.50;;;;;;;;5095046;27;45425;-70
2022/06/18 01:51:45;;;;;;;;;11.00;11.00;;;;;;;;5095686;27;45304;-71
2022/06/18 01:54:12;;;;;;;;;11.25;11.25;;;;;;;;5094602;27;45500;-71
2022/06/18 01:56:43;;;;;;;;;11.00;11.00;;;;;;;;5095816;27;46802;-71
2022/06/18 01:59:13;;;;;;;;;12.25;12.25;;;;;;;;5095211;27;45206;-71
2022/06/18 02:01:40;;;;;;;;;9.00;9.00;;;;;;;;5095257;27;45369;-70
2022/06/18 02:04:06;;;;;;;;;12.00;11.75;;;;;;;;5092961;27;45313;-71
2022/06/18 02:06:32;;;;;;;;;13.00;12.00;;;;;;;;5093801;27;46327;-71
2022/06/18 02:08:59;;;;;;;;;13.00;12.50;;;;;;;;5098162;27;45448;-70
2022/06/18 02:11:24;;;;;;;;;13.50;12.75;;;;;;;;5100850;27;45459;-71
2022/06/18 02:14:00;;;;;;;;;11.75;11.75;;;;;;;;5099884;27;45623;-71
2022/06/18 02:16:28;;;;;;;;;13.00;13.00;;;;;;;;5094814;27;46387;-70
2022/06/18 02:18:54;;;;;;;;;13.75;12.00;;;;;;;;5093716;27;45309;-70
2022/06/18 02:21:23;;;;;;;;;11.75;11.75;;;;;;;;5088573;27;45538;-71
2022/06/18 02:23:55;;;;;;;;;13.50;12.75;;;;;;;;5091700;27;45541;-70
2022/06/18 02:26:22;;;;;;;;;11.50;11.50;;;;;;;;5093827;27;46211;-70
2022/06/18 02:28:50;;;;;;;;;12.75;12.50;;;;;;;;5092808;27;45479;-70
2022/06/18 02:31:17;;;;;;;;;11.50;11.50;;;;;;;;5092805;27;45342;-70
2022/06/18 02:33:42;;;;;;;;;12.50;12.50;;;;;;;;5094348;27;45317;-70
2022/06/18 02:36:13;;;;;;;;;10.50;10.00;;;;;;;;5094821;27;46375;-71
2022/06/18 02:38:39;;;;;;;;;15.00;12.25;;;;;;;;5094586;27;45390;-70
2022/06/18 02:41:04;;;;;;;;;10.00;10.00;;;;;;;;5094456;27;45426;-71
2022/06/18 02:43:29;;;;;;;;;10.25;10.25;;;;;;;;5094060;27;45482;-70
2022/06/18 02:45:55;;;;;;;;;11.00;10.50;;;;;;;;5094277;27;46106;-70
2022/06/18 02:48:26;;;;;;;;;10.75;10.25;;;;;;;;5093426;27;45430;-70
2022/06/18 02:50:52;;;;;;;;;11.00;11.00;;;;;;;;5092815;27;45307;-70
2022/06/18 02:53:17;;;;;;;;;9.50;9.50;;;;;;;;5094910;27;45392;-71
2022/06/18 02:55:45;;;;;;;;;10.25;10.25;;;;;;;;5092564;27;48345;-70
2022/06/18 02:58:12;;;;;;;;;12.00;11.00;;;;;;;;5094315;27;45475;-71
2022/06/18 03:00:39;;;;;;;;;10.00;10.00;;;;;;;;5093025;27;45491;-71
2022/06/18 03:03:06;;;;;;;;;10.75;10.75;;;;;;;;5094845;27;45467;-71
2022/06/18 03:05:32;;;;;;;;;9.00;9.00;;;;;;;;5093884;27;47375;-70
2022/06/18 03:07:57;;;;;;;;;11.75;10.75;;;;;;;;5102666;27;45599;-70
2022/06/18 03:13:06;;;;;;;;;11.50;11.50;;;;;;;;5105002;27;45377;-71
2022/06/18 03:15:32;;;;;;;;;12.00;12.00;;;;;;;;5093202;27;46421;-70
2022/06/18 03:17:58;;;;;;;;;10.25;10.25;;;;;;;;5095850;27;45476;-70
2022/06/18 03:20:27;;;;;;;;;13.25;12.25;;;;;;;;5094811;27;45377;-70
2022/06/18 03:22:53;;;;;;;;;9.00;9.00;;;;;;;;5092571;27;45542;-71
2022/06/18 03:25:18;;;;;;;;;12.00;12.00;;;;;;;;5093239;27;46200;-70
2022/06/18 03:27:43;;;;;;;;;11.25;10.75;;;;;;;;5092260;27;45513;-71
2022/06/18 03:30:09;;;;;;;;;12.50;12.50;;;;;;;;5094682;27;45207;-70
2022/06/18 03:32:34;;;;;;;;;12.50;11.75;;;;;;;;5093979;27;45386;-70
2022/06/18 03:34:59;;;;;;;;;14.00;13.00;;;;;;;;5094327;27;46045;-70
2022/06/18 03:37:24;;;;;;;;;12.25;12.25;;;;;;;;5095227;27;45344;-69
2022/06/18 03:39:49;;;;;;;;;11.00;11.00;;;;;;;;5092352;27;45587;-71
2022/06/18 03:42:15;;;;;;;;;13.75;12.50;;;;;;;;5093915;27;45529;-70
2022/06/18 03:44:40;;;;;;;;;11.50;11.50;;;;;;;;5094251;27;45929;-70
2022/06/18 03:47:05;;;;;;;;;12.00;12.00;;;;;;;;5093328;27;45329;-72
2022/06/18 03:49:32;;;;;;;;;13.00;12.25;;;;;;;;5093837;27;45841;-70
2022/06/18 03:51:58;;;;;;;;;11.75;11.25;;;;;;;;5092019;27;45310;-71
2022/06/18 03:54:24;;;;;;;;;12.75;11.25;;;;;;;;5093841;27;47186;-71
2022/06/18 03:56:49;;;;;;;;;12.25;12.25;;;;;;;;5095031;27;45295;-71
2022/06/18 03:59:15;;;;;;;;;11.25;10.50;;;;;;;;5091915;27;45461;-70
2022/06/18 04:01:41;;;;;;;;;11.00;10.50;;;;;;;;5091408;27;45511;-70
2022/06/18 04:04:10;;;;;;;;;9.00;9.00;;;;;;;;5092957;27;46282;-70
2022/06/18 04:06:36;;;;;;;;;11.25;10.25;;;;;;;;5093201;27;45331;-70
2022/06/18 04:09:01;;;;;;;;;11.25;10.75;;;;;;;;5110710;27;45277;-70
2022/06/18 04:11:26;;;;;;;;;10.00;10.00;;;;;;;;5104077;27;45428;-70
2022/06/18 04:13:52;;;;;;;;;13.00;13.00;;;;;;;;5099184;27;46354;-71
2022/06/18 04:16:17;;;;;;;;;12.00;11.33;;;;;;;;5100493;27;45493;-71
2022/06/18 04:18:43;;;;;;;;;9.75;9.75;;;;;;;;5093330;27;45352;-71
2022/06/18 04:21:08;;;;;;;;;10.25;10.25;;;;;;;;5093752;27;45578;-70
2022/06/18 04:23:34;;;;;;;;;10.50;10.50;;;;;;;;5093550;27;46190;-70
2022/06/18 04:25:59;;;;;;;;;14.00;12.50;;;;;;;;5092941;27;45501;-70
2022/06/18 04:28:25;;;;;;;;;12.00;12.00;;;;;;;;5093392;27;45502;-70
2022/06/18 04:30:50;;;;;;;;;11.00;11.00;;;;;;;;5093156;27;45664;-70
2022/06/18 04:33:15;;;;;;;;;11.75;11.50;;;;;;;;5092555;27;46179;-71
2022/06/18 04:35:41;;;;;;;;;9.50;9.50;;;;;;;;5095100;27;45329;-71
2022/06/18 04:38:07;;;;;;;;;11.25;11.25;;;;;;;;5093045;27;45750;-70
2022/06/18 04:40:33;;;;;;;;;13.00;11.50;;;;;;;;5096508;27;45369;-70
2022/06/18 04:43:02;;;;;;;;;11.25;10.75;;;;;;;;5094748;27;47044;-71
2022/06/18 04:45:28;;;;;;;;;13.00;13.00;;;;;;;;5095465;27;45262;-71
2022/06/18 04:47:54;;;;;;;;;12.75;12.75;;;;;;;;5098473;27;45270;-70
2022/06/18 04:50:20;;;;;;;;;12.00;12.00;;;;;;;;5097178;27;45622;-70
2022/06/18 04:52:45;;;;;;;;;13.50;12.75;;;;;;;;5096659;27;46336;-70
2022/06/18 04:55:11;;;;;;;;;12.75;11.00;;;;;;;;5096158;27;45570;-70
2022/06/18 04:57:36;;;;;;;;;11.75;9.25;;;;;;;;5095897;27;45356;-70
2022/06/18 05:00:04;;;;;;;;;11.00;10.00;;;;;;;;5097282;27;45296;-70
2022/06/18 05:02:29;;;;;;;;;10.75;10.75;;;;;;;;5095772;27;46465;-70
2022/06/18 05:04:55;;;;;;;;;13.00;11.25;;;;;;;;5094681;27;45239;-70
2022/06/18 05:07:20;;;;;;;;;8.25;8.25;;;;;;;;5099185;27;45408;-70
2022/06/18 05:09:45;;;;;;;;;12.25;11.25;;;;;;;;5109622;27;45285;-70
2022/06/18 05:12:12;;;;;;;;;10.00;10.00;;;;;;;;5108063;27;46216;-70
2022/06/18 05:14:37;;;;;;;;;13.50;11.00;;;;;;;;5098089;27;45353;-70
2022/06/18 05:17:03;;;;;;;;;10.00;9.75;;;;;;;;5094383;27;45405;-70
2022/06/18 05:19:30;;;;;;;;;9.50;9.50;;;;;;;;5096197;27;45476;-70
2022/06/18 05:21:55;;;;;;;;;11.00;9.50;;;;;;;;5095370;27;45386;-70
2022/06/18 05:24:20;;;;;;;;;10.00;10.00;;;;;;;;5096003;27;45454;-70
2022/06/18 05:26:47;;;;;;;;;12.00;11.50;;;;;;;;5097854;27;45448;-70
2022/06/18 05:29:13;;;;;;;;;9.75;9.75;;;;;;;;5095864;27;45835;-70
2022/06/18 05:31:38;;;;;;;;;8.75;8.75;;;;;;;;5094449;27;46102;-70
2022/06/18 05:34:03;;;;;;;;;10.75;10.75;;;;;;;;5094504;27;45464;-70
2022/06/18 05:36:29;;;;;;;;;13.75;12.25;;;;;;;;5094560;27;45651;-70
2022/06/18 05:38:54;;;;;;;;;12.00;11.00;;;;;;;;5098039;27;45376;-71
2022/06/18 05:41:19;;;;;;;;;12.50;11.00;;;;;;;;5094615;27;47207;-71
2022/06/18 05:43:44;;;;;;;;;11.25;11.25;;;;;;;;5095799;27;45504;-70
2022/06/18 05:46:11;;;;;;;;;10.25;10.25;;;;;;;;5095242;27;45589;-71
2022/06/18 05:48:36;;;;;;;;;11.25;11.00;;;;;;;;5093431;27;45500;-70
2022/06/18 05:51:02;;;;;;;;;12.00;12.00;;;;;;;;5095679;27;46933;-70
2022/06/18 05:53:27;;;;;;;;;11.00;11.00;;;;;;;;5096677;27;45370;-70
2022/06/18 05:55:52;;;;;;;;;9.50;9.50;;;;;;;;5093007;27;45544;-71
2022/06/18 05:58:17;;;;;;;;;11.50;11.50;;;;;;;;5096170;27;45343;-70
2022/06/18 06:00:43;;;;;;;;;9.75;9.75;;;;;;;;5095798;27;45466;-71
2022/06/18 06:03:08;;;;;;;;;10.75;10.75;;;;;;;;5095535;27;45507;-71
2022/06/18 06:05:33;;;;;;;;;11.75;10.00;;;;;;;;5095819;27;45579;-71
2022/06/18 06:07:58;;;;;;;;;12.75;11.25;;;;;;;;5102721;27;45401;-70
2022/06/18 06:13:09;;;;;;;;;10.25;10.25;;;;;;;;5105230;27;45603;-71
2022/06/18 06:15:34;;;;;;;;;9.25;9.25;;;;;;;;5093556;27;45525;-71
2022/06/18 06:18:00;;;;;;;;;12.25;11.75;;;;;;;;5096717;27;45414;-71
2022/06/18 06:20:27;;;;;;;;;9.00;9.00;;;;;;;;5095911;27;45409;-71
2022/06/18 06:22:52;;;;;;;;;8.00;8.00;;;;;;;;5094837;27;45334;-71
2022/06/18 06:25:18;;;;;;;;;10.25;10.25;;;;;;;;5095026;27;47327;-70
2022/06/18 06:27:43;;;;;;;;;12.00;10.75;;;;;;;;5093208;27;45439;-70
2022/06/18 06:30:11;;;;;;;;;10.00;10.00;;;;;;;;5094784;27;46199;-71
2022/06/18 06:32:36;;;;;;;;;11.75;10.75;;;;;;;;5096560;27;45378;-70
2022/06/18 06:35:01;;;;;;;;;9.75;9.75;;;;;;;;5094458;27;45401;-71
2022/06/18 06:37:26;;;;;;;;;11.75;11.75;;;;;;;;5094214;27;45518;-71
2022/06/18 06:39:51;;;;;;;;;9.75;9.75;;;;;;;;5094837;27;47222;-71
2022/06/18 06:42:16;;;;;;;;;10.00;10.00;;;;;;;;5095050;27;45262;-70
2022/06/18 06:44:42;;;;;;;;;9.00;9.00;;;;;;;;5096814;27;45250;-70
2022/06/18 06:47:08;;;;;;;;;9.50;9.50;;;;;;;;5094397;27;45435;-71
2022/06/18 06:49:33;;;;;;;;;10.25;10.25;;;;;;;;5093004;27;45525;-70
2022/06/18 06:51:58;;;;;;;;;12.00;11.00;;;;;;;;5094585;27;45590;-71
2022/06/18 06:54:23;;;;;;;;;9.25;9.25;;;;;;;;5095431;27;45281;-70
2022/06/18 06:59:32;;;;;;;;;12.25;11.25;;;;;;;;5094495;27;45867;-71
2022/06/18 07:01:58;;;;;;;;;11.00;9.25;;;;;;;;5093140;27;45412;-70
2022/06/18 07:04:23;;;;;;;;;10.50;9.75;;;;;;;;5094256;27;46978;-71
2022/06/18 07:06:48;;;;;;;;;10.50;10.50;;;;;;;;5091495;27;45474;-70
2022/06/18 07:09:13;;;;;;;;;11.25;11.25;;;;;;;;5095755;27;45602;-71
2022/06/18 07:11:39;;;;;;;;;11.00;11.00;;;;;;;;5107543;27;45459;-70
2022/06/18 07:14:05;;;;;;;;;10.00;10.00;;;;;;;;5096113;27;45484;-71
2022/06/18 07:16:30;;;;;;;;;11.50;11.50;;;;;;;;5094275;27;47109;-71
2022/06/18 07:18:56;;;;;;;;;9.25;9.25;;;;;;;;5093923;27;45426;-71
2022/06/18 07:21:22;;;;;;;;;10.00;10.00;;;;;;;;5092743;27;45385;-70
2022/06/18 07:23:47;;;;;;;;;11.25;11.25;;;;;;;;5096492;27;45344;-70
2022/06/18 07:26:13;;;;;;;;;11.75;9.75;;;;;;;;5093893;27;45408;-70
2022/06/18 07:28:39;;;;;;;;;11.00;10.75;;;;;;;;5092593;27;46199;-71
2022/06/18 07:31:04;;;;;;;;;8.25;8.25;;;;;;;;5093912;27;45379;-70
2022/06/18 07:33:32;;;;;;;;;11.00;10.00;;;;;;;;5092664;27;45371;-70
2022/06/18 07:35:58;;;;;;;;;9.00;9.00;;;;;;;;5095100;27;45385;-70
2022/06/18 07:38:23;;;;;;;;;10.00;10.00;;;;;;;;5093559;27;46310;-70
2022/06/18 07:40:52;;;;;;;;;11.50;10.00;;;;;;;;5092496;27;45435;-70
2022/06/18 07:43:19;;;;;;;;;10.00;10.00;;;;;;;;5092190;27;45253;-71
2022/06/18 07:45:46;;;;;;;;;12.50;11.00;;;;;;;;5093454;27;45433;-70
2022/06/18 07:48:11;;;;;;;;;10.50;10.00;;;;;;;;5093612;27;46466;-70
2022/06/18 07:50:37;;;;;;;;;11.00;11.00;;;;;;;;5093756;27;45274;-70
2022/06/18 07:53:02;;;;;;;;;11.75;11.75;;;;;;;;5094822;27;45426;-71
2022/06/18 07:55:28;;;;;;;;;10.00;9.25;;;;;;;;5093617;27;45419;-70
2022/06/18 07:57:53;;;;;;;;;9.50;8.75;;;;;;;;5093393;27;46208;-70
2022/06/18 08:00:21;;;;;;;;;9.00;9.00;;;;;;;;5092217;27;45373;-71
2022/06/18 08:02:47;;;;;;;;;11.75;10.25;;;;;;;;5095501;27;45414;-71
2022/06/18 08:05:18;;;;;;;;;11.50;10.50;;;;;;;;5092439;27;45428;-71
2022/06/18 08:07:43;;;;;;;;;7.25;7.25;;;;;;;;5094737;27;46117;-70
2022/06/18 08:10:08;;;;;;;;;11.75;11.75;;;;;;;;5101612;27;45623;-70
2022/06/18 08:12:34;;;;;;;;;10.25;9.50;;;;;;;;5105475;27;45528;-71
2022/06/18 08:15:01;;;;;;;;;9.50;9.50;;;;;;;;5098759;27;45308;-71
2022/06/18 08:17:26;;;;;;;;;9.25;9.25;;;;;;;;5096392;27;47210;-70
2022/06/18 08:19:51;;;;;;;;;9.25;9.25;;;;;;;;5094927;27;45387;-70
2022/06/18 08:22:17;;;;;;;;;11.50;11.50;;;;;;;;5097512;27;45369;-70
2022/06/18 08:24:42;;;;;;;;;9.00;9.00;;;;;;;;5096541;27;45458;-71
2022/06/18 08:27:08;;;;;;;;;11.50;10.50;;;;;;;;5096648;27;45932;-71
2022/06/18 08:29:34;;;;;;;;;10.75;10.75;;;;;;;;5098629;27;45341;-71
2022/06/18 08:32:00;;;;;;;;;12.25;9.50;;;;;;;;5096544;27;45370;-70
2022/06/18 08:34:25;;;;;;;;;9.75;9.25;;;;;;;;5095409;27;45484;-70
2022/06/18 08:36:50;;;;;;;;;7.00;7.00;;;;;;;;5096355;27;46193;-70
2022/06/18 08:39:15;;;;;;;;;8.50;8.50;;;;;;;;5090693;27;45364;-70
2022/06/18 08:41:59;;;;;;;;;10.50;9.75;;;;;;;;5097888;27;46696;-70
2022/06/18 08:44:27;;;;;;;;;10.75;10.75;;;;;;;;5097858;27;45465;-70
2022/06/18 08:47:11;;;;;;;;;10.25;10.25;;;;;;;;5096523;27;45578;-70
2022/06/18 08:49:55;;;;;;;;;10.00;9.25;;;;;;;;5096240;27;45341;-70
2022/06/18 08:52:39;;;;;;;;;11.00;11.00;;;;;;;;5095338;27;45272;-70
2022/06/18 08:55:13;;;;;;;;;11.25;11.00;;;;;;;;5088095;27;45445;-70
2022/06/18 08:57:56;;;;;;;;;10.25;9.00;;;;;;;;5096325;27;46164;-70
2022/06/18 09:00:26;;;;;;;;;10.50;10.50;;;;;;;;5083382;27;45497;-71
2022/06/18 09:02:55;;;;;;;;;9.67;9.67;;;;;;;;5095962;27;45466;-74
2022/06/18 09:05:20;;;;;;;;;9.25;9.25;;;;;;;;5096875;27;45463;-74
2022/06/18 09:07:58;;;;;;;;;10.25;10.25;;;;;;;;5102716;27;46962;-72
2022/06/18 09:10:39;;;;;;;;;10.50;10.50;;;;;;;;5102888;27;45585;-73
2022/06/18 09:13:12;;;;;;;;;10.00;10.00;;;;;;;;5107117;27;45793;-72
2022/06/18 09:15:40;;;;;;;;;11.50;10.00;;;;;;;;5095962;27;45464;-72
2022/06/18 09:18:05;;;;;;;;;10.00;10.00;;;;;;;;5095932;27;46383;-72
2022/06/18 09:20:34;;;;;;;;;12.00;10.25;;;;;;;;5097546;27;45429;-71
2022/06/18 09:23:13;;;;;;;;;11.25;11.25;;;;;;;;5096255;27;45500;-71
2022/06/18 09:25:44;;;;;;;;;10.00;10.00;;;;;;;;5095297;27;45354;-71
2022/06/18 09:28:12;;;;;;;;;11.75;10.75;;;;;;;;5095996;27;46334;-71
2022/06/18 09:30:57;;;;;;;;;11.75;10.50;;;;;;;;5095926;27;45472;-72
2022/06/18 09:33:34;;;;;;;;;13.00;11.75;;;;;;;;5085367;27;45286;-71
2022/06/18 09:36:07;;;;;;;;;10.00;9.25;;;;;;;;5096033;27;45478;-71
2022/06/18 09:38:32;;;;;;;;;11.50;10.00;;;;;;;;5097587;27;46368;-71
2022/06/18 09:40:59;;;;;;;;;9.20;9.20;;;;;;;;5095738;27;45465;-71
2022/06/18 09:43:27;;;;;;;;;11.00;9.75;;;;;;;;5095944;27;45527;-71
2022/06/18 09:45:58;;;;;;;;;12.50;10.00;;;;;;;;5096107;27;45446;-71
2022/06/18 09:48:23;;;;;;;;;12.00;9.25;;;;;;;;5084981;27;45613;-71
2022/06/18 09:50:50;;;;;;;;;11.00;9.00;;;;;;;;5097386;27;45515;-71
2022/06/18 09:53:30;;;;;;;;;13.00;11.75;;;;;;;;5093962;27;45539;-71
2022/06/18 09:55:58;;;;;;;;;11.00;10.75;;;;;;;;5096476;27;45517;-71
2022/06/18 09:58:26;;;;;;;;;9.25;9.25;;;;;;;;5092606;27;46192;-71
2022/06/18 10:00:52;;;;;;;;;12.25;12.25;;;;;;;;5093435;27;45587;-71
2022/06/18 10:08:52;;;;;;;;;10.75;8.50;;;;;;;;5113519;27;45753;-71
2022/06/18 10:11:20;;;;;;;;;11.25;10.00;;;;;;;;5102937;27;45569;-71
2022/06/18 10:13:51;;;;;;;;;10.25;9.25;;;;;;;;5099704;27;45474;-71
2022/06/18 10:16:36;;;;;;;;;8.50;8.50;;;;;;;;5094922;27;45536;-72
2022/06/18 10:19:21;;;;;;;;;10.75;9.75;;;;;;;;5094536;27;45582;-71
2022/06/18 10:21:49;;;;;;;;;9.75;9.75;;;;;;;;5093734;27;48805;-71
2022/06/18 10:24:22;;;;;;;;;11.50;11.25;;;;;;;;5096243;27;45338;-71
2022/06/18 10:27:07;;;;;;;;;9.00;9.00;;;;;;;;5097347;27;45380;-71
2022/06/18 10:29:53;;;;;;;;;10.00;10.00;;;;;;;;5096499;27;47011;-71
2022/06/18 10:32:24;;;;;;;;;10.50;10.50;;;;;;;;5093828;27;45353;-71
2022/06/18 10:34:52;;;;;;;;;10.75;10.75;;;;;;;;5095043;27;45357;-72
2022/06/18 10:37:26;;;;;;;;;9.75;9.00;;;;;;;;5085112;27;45529;-71
2022/06/18 10:40:02;;;;;;;;;11.25;10.50;;;;;;;;5093265;27;46095;-71
2022/06/18 10:42:46;;;;;;;;;10.25;10.25;;;;;;;;5089574;27;45477;-72
2022/06/18 10:45:31;;;;;;;;;9.25;9.25;;;;;;;;5094834;27;45371;-71
2022/06/18 10:47:57;;;;;;;;;10.75;9.75;;;;;;;;5094012;27;45544;-72
2022/06/18 10:50:24;;;;;;;;;9.00;9.00;;;;;;;;5093520;27;46046;-71
2022/06/18 10:53:04;;;;;;;;;7.75;7.75;;;;;;;;5092784;27;45704;-71
2022/06/18 10:55:29;;;;;;;;;9.25;8.25;;;;;;;;5094611;27;45338;-71
2022/06/18 10:58:05;;;;;;;;;10.50;9.50;;;;;;;;5094368;27;45532;-71
2022/06/18 11:00:31;;;;;;;;;9.25;8.75;;;;;;;;5084148;27;46056;-72
2022/06/18 11:02:57;;;;;;;;;11.00;9.00;;;;;;;;5095971;27;45271;-71
2022/06/18 11:05:32;;;;;;;;;9.00;8.75;;;;;;;;5093675;27;45394;-72
2022/06/18 11:08:00;;;;;;;;;10.50;9.50;;;;;;;;5104543;27;45426;-71
2022/06/18 11:10:37;;;;;;;;;10.00;10.00;;;;;;;;5103004;27;46002;-72
2022/06/18 11:13:04;;;;;;;;;9.25;9.25;;;;;;;;5093935;27;45492;-72
2022/06/18 11:15:31;;;;;;;;;7.25;7.25;;;;;;;;5095726;27;45853;-71
2022/06/18 11:17:56;;;;;;;;;9.50;8.25;;;;;;;;5095596;27;45496;-71
2022/06/18 11:20:27;;;;;;;;;10.00;10.00;;;;;;;;5092392;27;46221;-71
2022/06/18 11:22:57;;;;;;;;;8.00;8.00;;;;;;;;5093035;27;45566;-72
2022/06/18 11:25:27;;;;;;;;;8.00;8.00;;;;;;;;5094118;27;45392;-71
2022/06/18 11:27:55;;;;;;;;;11.00;9.50;;;;;;;;5092172;27;45485;-71
2022/06/18 11:30:30;;;;;;;;;8.25;8.25;;;;;;;;5093207;27;45377;-72
2022/06/18 11:32:55;;;;;;;;;8.25;8.25;;;;;;;;5094656;27;45234;-72
2022/06/18 11:35:30;;;;;;;;;9.00;8.00;;;;;;;;5094502;27;45509;-71
2022/06/18 11:38:00;;;;;;;;;9.00;9.00;;;;;;;;5094330;27;46116;-72
2022/06/18 11:40:25;;;;;;;;;8.00;8.00;;;;;;;;5084842;27;46985;-71
2022/06/18 11:42:53;;;;;;;;;11.25;10.00;;;;;;;;5089918;27;45401;-71
2022/06/18 11:45:25;;;;;;;;;9.00;9.00;;;;;;;;5093821;27;45476;-72
2022/06/18 11:48:02;;;;;;;;;10.75;10.75;;;;;;;;5091396;27;45753;-71
2022/06/18 11:50:31;;;;;;;;;10.75;10.75;;;;;;;;5095687;27;46050;-72
2022/06/18 11:53:09;;;;;;;;;9.67;9.67;;;;;;;;5093550;27;45418;-72
2022/06/18 11:55:35;;;;;;;;;9.00;7.67;;;;;;;;5092009;27;45469;-71
2022/06/18 11:58:11;;;;;;;;;10.25;8.75;;;;;;;;5088577;27;45472;-71
2022/06/18 12:00:48;;;;;;;;;11.75;11.00;;;;;;;;5093449;27;46161;-71
2022/06/18 12:03:23;;;;;;;;;10.00;8.33;;;;;;;;5092621;27;45337;-72
2022/06/18 12:05:48;;;;;;;;;9.00;9.00;;;;;;;;5095579;27;45488;-72
2022/06/18 12:08:16;;;;;;;;;9.25;9.00;;;;;;;;5102272;27;45488;-71
2022/06/18 12:10:50;;;;;;;;;9.25;8.00;;;;;;;;5096023;27;48681;-72
2022/06/18 12:13:28;;;;;;;;;8.67;8.67;;;;;;;;5099925;27;45269;-72
2022/06/18 12:16:12;;;;;;;;;8.67;8.00;;;;;;;;5091368;27;45685;-71
2022/06/18 12:18:45;;;;;;;;;9.75;9.75;;;;;;;;5089318;27;45370;-71
2022/06/18 12:21:16;;;;;;;;;8.75;8.00;;;;;;;;5093112;27;47322;-71
2022/06/18 12:24:03;;;;;;;;;9.00;9.00;;;;;;;;5095325;27;45448;-72
2022/06/18 12:26:37;;;;;;;;;8.75;7.25;;;;;;;;5093821;27;45559;-71
2022/06/18 12:29:02;;;;;;;;;12.75;12.50;;;;;;;;5090831;27;45404;-71
2022/06/18 12:31:38;;;;;;;;;9.00;8.00;;;;;;;;5092431;27;46301;-71
2022/06/18 12:34:06;;;;;;;;;11.75;10.00;;;;;;;;5093773;27;45403;-71
2022/06/18 12:36:42;;;;;;;;;8.25;8.25;;;;;;;;5093041;27;45527;-72
2022/06/18 12:39:21;;;;;;;;;8.00;8.00;;;;;;;;5094148;27;45270;-72
2022/06/18 12:41:55;;;;;;;;;7.00;7.00;;;;;;;;5094421;27;47035;-71
2022/06/18 12:44:33;;;;;;;;;8.00;8.00;;;;;;;;5093142;27;45400;-72
2022/06/18 12:47:04;;;;;;;;;8.33;7.67;;;;;;;;5093154;27;45438;-71
2022/06/18 12:49:35;;;;;;;;;8.33;8.33;;;;;;;;5091413;27;45574;-72
2022/06/18 12:52:06;;;;;;;;;9.00;8.33;;;;;;;;5092736;27;46077;-71
2022/06/18 12:54:37;;;;;;;;;7.25;7.00;;;;;;;;5091229;27;45499;-71
2022/06/18 12:57:19;;;;;;;;;7.75;7.75;;;;;;;;5093958;27;45294;-72
2022/06/18 13:00:02;;;;;;;;;7.67;7.00;;;;;;;;5094876;27;45445;-72
2022/06/18 13:02:36;;;;;;;;;7.50;7.50;;;;;;;;5097146;27;47242;-72
2022/06/18 13:05:20;;;;;;;;;8.67;7.33;;;;;;;;5095914;27;45505;-72
2022/06/18 13:07:54;;;;;;;;;8.50;8.50;;;;;;;;5095855;27;45461;-72
2022/06/18 13:10:32;;;;;;;;;9.00;9.00;;;;;;;;5101583;27;45572;-71
2022/06/18 13:13:04;;;;;;;;;9.00;9.00;;;;;;;;5089544;27;47069;-72
2022/06/18 13:15:56;;;;;;;;;9.25;9.25;;;;;;;;5095484;27;45436;-71
2022/06/18 13:18:28;;;;;;;;;7.00;7.00;;;;;;;;5089126;27;45289;-72
2022/06/18 13:20:54;;;;;;;;;9.00;9.00;;;;;;;;5094535;27;45286;-71
2022/06/18 13:28:52;;;;;;;;;9.67;8.67;;;;;;;;5094702;27;45392;-71
2022/06/18 13:31:17;;;;;;;;;8.75;8.75;;;;;;;;5095740;27;45904;-72
2022/06/18 13:33:54;;;;;;;;;9.25;9.25;;;;;;;;5096023;27;45523;-72
2022/06/18 13:36:25;;;;;;;;;10.50;8.75;;;;;;;;5095035;27;45409;-72
2022/06/18 13:38:54;;;;;;;;;6.75;5.25;;;;;;;;5093398;27;45266;-72
2022/06/18 13:41:27;;;;;;;;;8.00;8.00;;;;;;;;5094153;27;45404;-72
2022/06/18 13:43:56;;;;;;;;;9.67;8.33;;;;;;;;5095224;27;45286;-71
2022/06/18 13:46:30;;;;;;;;;8.00;8.00;;;;;;;;5095457;27;45385;-72
2022/06/18 13:48:55;;;;;;;;;9.25;7.75;;;;;;;;5095522;27;45394;-72
2022/06/18 13:51:24;;;;;;;;;7.75;7.75;;;;;;;;5095543;27;45504;-72
2022/06/18 13:53:49;;;;;;;;;7.50;7.50;;;;;;;;5097367;27;46622;-72
2022/06/18 13:56:18;;;;;;;;;7.00;7.00;;;;;;;;5094629;27;45268;-71
2022/06/18 13:58:48;;;;;;;;;8.67;7.33;;;;;;;;5093776;27;45871;-72
2022/06/18 14:01:15;;;;;;;;;7.33;7.33;;;;;;;;5094158;27;45527;-72
2022/06/18 14:03:45;;;;;;;;;8.00;8.00;;;;;;;;5093621;27;47590;-72
2022/06/18 14:06:11;;;;;;;;;8.00;8.00;;;;;;;;5094272;27;45584;-72
2022/06/18 14:08:51;;;;;;;;;9.00;8.00;;;;;;;;5107949;27;45413;-71
2022/06/18 14:11:27;;;;;;;;;9.33;9.33;;;;;;;;5103437;27;45330;-71
2022/06/18 14:13:53;;;;;;;;;7.33;7.33;;;;;;;;5101227;27;47128;-72
2022/06/18 14:16:26;;;;;;;;;8.75;8.75;;;;;;;;5107984;27;45347;-72
2022/06/18 14:18:51;;;;;;;;;8.00;8.00;;;;;;;;5101566;27;45577;-72
2022/06/18 14:21:23;;;;;;;;;7.00;7.00;;;;;;;;5098471;27;45519;-72
2022/06/18 14:23:54;;;;;;;;;6.67;6.67;;;;;;;;5104349;27;45279;-71
2022/06/18 14:26:21;;;;;;;;;7.33;7.33;;;;;;;;5093609;27;45354;-71
2022/06/18 14:28:49;;;;;;;;;9.25;6.75;;;;;;;;5093739;27;45424;-71
2022/06/18 14:31:23;;;;;;;;;8.00;7.00;;;;;;;;5095167;27;45429;-72
2022/06/18 14:33:56;;;;;;;;;7.33;6.00;;;;;;;;5094570;27;45446;-71
2022/06/18 14:36:23;;;;;;;;;7.50;6.75;;;;;;;;5094932;27;45339;-71
2022/06/18 14:38:50;;;;;;;;;8.00;8.00;;;;;;;;5097112;27;45288;-72
2022/06/18 14:41:35;;;;;;;;;5.67;5.67;;;;;;;;5094696;27;45334;-71
2022/06/18 14:44:00;;;;;;;;;7.25;7.25;;;;;;;;5094663;27;47126;-72
2022/06/18 14:46:46;;;;;;;;;9.67;7.00;;;;;;;;5093285;27;45367;-72
2022/06/18 14:49:23;;;;;;;;;10.00;8.00;;;;;;;;5093066;27;45581;-71
2022/06/18 14:51:57;;;;;;;;;6.00;6.00;;;;;;;;5094407;27;45495;-72
2022/06/18 14:54:23;;;;;;;;;8.33;8.00;;;;;;;;5093791;27;47526;-71
2022/06/18 14:57:01;;;;;;;;;8.67;7.33;;;;;;;;5096343;27;45398;-71